Search for airport 
image banner adimage banner adimage banner ad
image banner ad

CEP9 - Namushka Lodge

Located in Yellowknife, Canada

ICAO - CEP9, IATA -

Data provided by Airmate  

General information

Coordinates: N62°24'60" W113°21'0"
Elevation is 670 feet MSL.
Magnetic variation is 17.5367° East
View others Airports in Northwest Territories

Operational data

Special qualification required
Current time UTC:
Current local time:
Weather at : CYZF - Yellowknife ( 56 km )
METAR: CYZF 221500Z 13015KT 15SM FEW200 02/M00 A2984 RMK CI1 SLP118
TAF: TAF CYZF 221138Z 2212/2312 14015G25KT P6SM SKC BECMG 2222/2224 14015KT RMK NXT FCST BY 221800Z
View NOTAMs / SUP AIP / TFR affecting this airport [VIEW]
Communications frequencies: [VIEW]

Runways:

RWY identifierQFULength (ft)Width (ft)SurfaceLDA (ft)
W00WATER

Airport contact information

Address: Yellowknife Canada

Satellite view of CEP9